MUVR/VRA METAR and TAF weather

Enter ICAO airport designator
Station Type Date Time Source
MUVR METAR 2021/10/20 06:50 UTC NOAA

MUVR 200650Z 08004KT 9000 SCT020 BKN140 24/23 Q1017


Station Type Date Time Source
MUVR Decoded METAR 2021/10/20 06:50 UTC NOAA

Varadero, Matanzas, Cuba (MUVR) 23-08N 081-17W 3M
Oct 20, 2021 - 02:50 AM EDT / 2021.10.20 0650 UTC
Wind: from the E (080 degrees) at 5 MPH (4 KT):0
Visibility: 5 mile(s):0
Sky conditions: mostly cloudy
Temperature: 75 F (24 C)
Dew Point: 73 F (23 C)
Relative Humidity: 94%
Pressure (altimeter): 30.03 in. Hg (1017 hPa)
ob: MUVR 200650Z 08004KT 9000 SCT020 BKN140 24/23 Q1017
cycle: 7

Station Type Date Time Source
MUVR TAF 2021/10/20 06:03 UTC NOAA

TAF MUVR 200500Z 2006/2106 VRB03KT 9000 SCT020
BECMG 2015/2017 06008KT
BECMG 2101/2103 VRB03KT

Example: see airport list